createdAt,value
2023-02-16T00:00:38.591Z,13.80
2023-02-16T00:03:05.065Z,13.76
2023-02-16T00:05:31.612Z,13.84
2023-02-16T00:07:58.168Z,13.90
2023-02-16T00:10:24.622Z,13.76
2023-02-16T00:12:51.175Z,13.74
2023-02-16T00:15:17.653Z,13.71
2023-02-16T00:17:44.117Z,13.73
2023-02-16T00:20:10.654Z,13.69
2023-02-16T00:22:37.101Z,13.65
2023-02-16T00:25:03.626Z,13.63
2023-02-16T00:27:30.126Z,13.60
2023-02-16T00:29:56.620Z,13.57
2023-02-16T00:32:23.135Z,13.49
2023-02-16T00:34:49.724Z,13.46
2023-02-16T00:37:16.430Z,13.40
2023-02-16T00:39:43.014Z,13.40
2023-02-16T00:42:09.552Z,13.36
2023-02-16T00:44:36.051Z,13.36
2023-02-16T00:47:02.490Z,13.32
2023-02-16T00:49:29.824Z,13.29
2023-02-16T00:51:56.350Z,13.27
2023-02-16T00:54:22.915Z,13.25
2023-02-16T00:56:49.449Z,13.25
2023-02-16T00:59:15.867Z,13.24
2023-02-16T01:01:42.338Z,13.18
2023-02-16T01:04:09.012Z,13.17
2023-02-16T01:06:35.478Z,13.15
2023-02-16T01:09:01.938Z,13.15
2023-02-16T01:11:31.213Z,13.14
2023-02-16T01:13:57.721Z,13.13
2023-02-16T01:16:24.194Z,13.10
2023-02-16T01:18:51.054Z,13.10
2023-02-16T01:21:19.037Z,13.08
2023-02-16T01:23:45.533Z,13.07
2023-02-16T01:26:12.729Z,13.04
2023-02-16T01:28:39.134Z,13.05
2023-02-16T01:31:05.962Z,13.00
2023-02-16T01:33:32.714Z,12.96
2023-02-16T01:35:59.286Z,12.94
2023-02-16T01:38:25.827Z,12.92
2023-02-16T01:40:52.362Z,12.96
2023-02-16T01:43:18.808Z,12.98
2023-02-16T01:45:45.321Z,12.98
2023-02-16T01:48:11.892Z,12.94
2023-02-16T01:50:38.388Z,12.91
2023-02-16T01:53:04.867Z,12.88
2023-02-16T01:55:31.338Z,12.85
2023-02-16T01:57:57.884Z,12.85
2023-02-16T02:00:24.389Z,12.81
2023-02-16T02:02:51.029Z,12.71
2023-02-16T02:05:17.474Z,12.67
2023-02-16T02:07:43.937Z,12.68
2023-02-16T02:10:10.481Z,12.64
2023-02-16T02:12:37.003Z,12.61
2023-02-16T02:15:03.846Z,12.59
2023-02-16T02:17:30.373Z,12.61
2023-02-16T02:19:57.239Z,12.64
2023-02-16T02:22:24.483Z,12.62
2023-02-16T02:24:50.975Z,12.62
2023-02-16T02:27:17.625Z,12.60
2023-02-16T02:29:45.128Z,12.58
2023-02-16T02:32:11.730Z,12.59
2023-02-16T02:34:40.258Z,12.59
2023-02-16T02:37:08.644Z,12.55
2023-02-16T02:39:35.328Z,12.50
2023-02-16T02:42:02.001Z,12.20
2023-02-16T02:44:28.599Z,12.44
2023-02-16T02:46:55.168Z,12.39
2023-02-16T02:49:21.887Z,12.40
2023-02-16T02:51:48.354Z,12.39
2023-02-16T02:54:15.743Z,12.36
2023-02-16T02:56:44.080Z,12.37
2023-02-16T02:59:10.800Z,12.35
2023-02-16T03:01:38.314Z,12.33
2023-02-16T03:04:04.810Z,12.32
2023-02-16T03:06:31.237Z,12.38
2023-02-16T03:08:57.732Z,12.50
2023-02-16T03:11:24.194Z,12.74
2023-02-16T03:13:50.716Z,12.97
2023-02-16T03:16:17.252Z,13.11
2023-02-16T03:18:43.765Z,13.19
2023-02-16T03:21:10.225Z,13.36
2023-02-16T03:23:36.718Z,13.59
2023-02-16T03:26:03.175Z,13.78
2023-02-16T03:28:29.735Z,13.88
2023-02-16T03:30:56.299Z,14.00
2023-02-16T03:33:22.811Z,14.11
2023-02-16T03:35:49.311Z,14.25
2023-02-16T03:38:15.837Z,14.33
2023-02-16T03:40:42.299Z,14.49
2023-02-16T03:43:08.816Z,14.61
2023-02-16T03:45:35.404Z,14.76
2023-02-16T03:48:01.877Z,14.80
2023-02-16T03:50:28.385Z,14.89
2023-02-16T03:52:54.938Z,15.09
2023-02-16T03:55:21.399Z,15.21
2023-02-16T03:57:47.835Z,15.25
2023-02-16T04:00:14.408Z,15.34
2023-02-16T04:02:40.797Z,15.47
2023-02-16T04:05:07.295Z,15.60
2023-02-16T04:07:33.782Z,15.80
2023-02-16T04:10:00.286Z,15.85
2023-02-16T04:12:26.744Z,15.97
2023-02-16T04:14:53.230Z,16.09
2023-02-16T04:17:19.635Z,16.15
2023-02-16T04:19:46.135Z,16.18
2023-02-16T04:22:12.748Z,16.25
2023-02-16T04:24:39.254Z,16.36
2023-02-16T04:27:05.679Z,16.49
2023-02-16T04:29:32.292Z,16.48
2023-02-16T04:31:58.946Z,16.52
2023-02-16T04:34:25.707Z,16.67
2023-02-16T04:36:52.265Z,16.65
2023-02-16T04:39:18.793Z,16.77
2023-02-16T04:41:45.279Z,16.90
2023-02-16T04:44:11.789Z,16.96
2023-02-16T04:46:38.250Z,17.04
2023-02-16T04:49:04.740Z,17.16
2023-02-16T04:51:31.258Z,17.12
2023-02-16T04:53:57.840Z,17.06
2023-02-16T04:56:24.388Z,17.19
2023-02-16T04:58:50.909Z,17.42
2023-02-16T05:01:17.430Z,17.61
2023-02-16T05:03:44.017Z,17.80
2023-02-16T05:06:10.626Z,17.48
2023-02-16T05:08:37.169Z,17.62
2023-02-16T05:11:03.923Z,17.82
2023-02-16T05:13:30.568Z,18.04
2023-02-16T05:15:57.130Z,18.26
2023-02-16T05:18:23.553Z,18.50
2023-02-16T05:20:50.059Z,18.74
2023-02-16T05:23:16.522Z,18.79
2023-02-16T05:25:43.016Z,18.72
2023-02-16T05:28:09.660Z,18.88
2023-02-16T05:30:36.230Z,19.07
2023-02-16T05:33:02.809Z,19.32
2023-02-16T05:35:29.501Z,19.57
2023-02-16T05:37:55.977Z,19.80
2023-02-16T05:40:22.475Z,20.02
2023-02-16T05:42:49.066Z,20.28
2023-02-16T05:45:16.868Z,20.46
2023-02-16T05:47:45.559Z,20.65
2023-02-16T05:50:13.335Z,20.83
2023-02-16T05:52:39.843Z,21.00
2023-02-16T05:55:06.329Z,21.16
2023-02-16T05:57:32.944Z,21.31
2023-02-16T05:59:59.362Z,21.52
2023-02-16T06:02:25.917Z,21.70
2023-02-16T06:04:52.660Z,21.89
2023-02-16T06:07:19.182Z,22.06
2023-02-16T06:09:45.794Z,22.25
2023-02-16T06:12:12.298Z,22.44
2023-02-16T06:14:38.735Z,23.13
2023-02-16T06:17:05.267Z,23.46
2023-02-16T06:19:31.836Z,23.65
2023-02-16T06:21:58.368Z,23.80
2023-02-16T06:24:24.864Z,23.95
2023-02-16T06:26:51.316Z,24.04
2023-02-16T06:29:17.869Z,23.92
2023-02-16T06:31:44.446Z,24.02
2023-02-16T06:34:11.140Z,24.03
2023-02-16T06:36:37.686Z,23.73
2023-02-16T06:39:04.206Z,23.86
2023-02-16T06:41:30.787Z,24.02
2023-02-16T06:43:57.282Z,24.20
2023-02-16T06:46:23.834Z,24.29
2023-02-16T06:48:50.366Z,24.44
2023-02-16T06:51:16.808Z,24.58
2023-02-16T06:53:43.313Z,24.74
2023-02-16T06:56:09.837Z,24.82
2023-02-16T06:58:36.261Z,25.00
2023-02-16T07:01:03.015Z,25.10
2023-02-16T07:03:29.899Z,25.26
2023-02-16T07:05:56.438Z,25.30
2023-02-16T07:08:22.858Z,25.27
2023-02-16T07:10:50.551Z,25.35
2023-02-16T07:13:17.088Z,25.45
2023-02-16T07:15:43.520Z,25.51
2023-02-16T07:18:10.000Z,25.55
2023-02-16T07:20:36.441Z,25.54
2023-02-16T07:23:02.883Z,25.56
2023-02-16T07:25:29.336Z,25.67
2023-02-16T07:27:55.768Z,25.38
2023-02-16T07:30:24.734Z,25.49
2023-02-16T07:32:51.597Z,25.05
2023-02-16T07:35:18.017Z,24.78
2023-02-16T07:37:44.435Z,24.72
2023-02-16T07:40:10.889Z,24.62
2023-02-16T07:42:37.304Z,24.51
2023-02-16T07:45:03.718Z,24.45
2023-02-16T07:47:30.196Z,24.93
2023-02-16T07:49:56.610Z,24.90
2023-02-16T07:52:23.033Z,24.91
2023-02-16T07:54:49.529Z,24.60
2023-02-16T07:57:15.981Z,24.45
2023-02-16T07:59:42.418Z,24.37
2023-02-16T08:02:08.976Z,24.38
2023-02-16T08:04:35.400Z,24.32
2023-02-16T08:07:01.844Z,24.29
2023-02-16T08:09:28.343Z,24.28
2023-02-16T08:11:54.782Z,24.25
2023-02-16T08:14:21.224Z,24.18
2023-02-16T08:16:49.555Z,24.09
2023-02-16T08:19:17.828Z,24.04
2023-02-16T08:21:44.260Z,24.05
2023-02-16T08:24:10.770Z,24.08
2023-02-16T08:26:37.200Z,24.04
2023-02-16T08:29:03.648Z,23.95
2023-02-16T08:31:30.243Z,23.94
2023-02-16T08:33:56.796Z,23.96
2023-02-16T08:36:23.237Z,23.88
2023-02-16T09:03:59.580Z,23.15
2023-02-16T09:06:26.004Z,23.07
2023-02-16T09:08:52.358Z,23.02
2023-02-16T09:11:18.796Z,23.27
2023-02-16T09:13:45.158Z,23.31
2023-02-16T09:16:11.555Z,23.32
2023-02-16T09:18:38.001Z,23.39
2023-02-16T09:21:04.374Z,23.48
2023-02-16T09:23:30.734Z,23.57
2023-02-16T09:25:57.164Z,23.59
2023-02-16T09:28:23.542Z,23.12
2023-02-16T09:30:49.910Z,23.02
2023-02-16T09:33:16.357Z,23.04
2023-02-16T09:35:42.732Z,23.09
2023-02-16T09:38:09.096Z,23.14
2023-02-16T09:40:35.567Z,23.13
2023-02-16T09:43:01.939Z,23.13
2023-02-16T09:45:28.335Z,23.11
2023-02-16T09:47:54.744Z,23.17
2023-02-16T09:50:38.281Z,23.20
2023-02-16T09:53:07.480Z,23.16
2023-02-16T09:55:33.865Z,23.09
2023-02-16T09:58:00.216Z,23.03
2023-02-16T10:00:26.650Z,23.08
2023-02-16T10:02:53.016Z,23.38
2023-02-16T10:05:19.390Z,23.71
2023-02-16T10:07:45.843Z,23.75
2023-02-16T10:10:12.205Z,23.65
2023-02-16T10:12:38.572Z,23.71
2023-02-16T10:15:05.009Z,23.79
2023-02-16T10:17:31.419Z,23.80
2023-02-16T10:19:57.788Z,23.84
2023-02-16T10:22:24.184Z,23.78
2023-02-16T10:24:50.553Z,23.20
2023-02-16T10:27:16.922Z,23.17
2023-02-16T10:29:43.351Z,23.21
2023-02-16T10:32:09.733Z,23.22
2023-02-16T10:34:36.125Z,23.16
2023-02-16T10:37:02.548Z,23.09
2023-02-16T10:39:28.910Z,23.10
2023-02-16T10:41:55.284Z,23.19
2023-02-16T10:44:21.696Z,23.23
2023-02-16T10:46:48.149Z,23.21
2023-02-16T10:49:14.530Z,23.15
2023-02-16T10:51:40.987Z,23.09
2023-02-16T10:54:07.380Z,23.16
2023-02-16T10:56:33.807Z,23.22
2023-02-16T10:59:00.266Z,23.24
2023-02-16T11:01:26.684Z,23.20
2023-02-16T11:03:53.054Z,23.15
2023-02-16T11:06:19.454Z,23.15
2023-02-16T11:08:45.777Z,23.22
2023-02-16T11:11:12.174Z,23.30
2023-02-16T11:13:38.610Z,23.31
2023-02-16T11:16:04.985Z,23.26
2023-02-16T11:18:31.406Z,23.21
2023-02-16T11:20:57.879Z,23.25
2023-02-16T11:23:24.292Z,23.35
2023-02-16T11:25:50.671Z,23.41
2023-02-16T11:28:17.094Z,23.43
2023-02-16T11:30:43.598Z,23.36
2023-02-16T11:33:10.063Z,23.31
2023-02-16T11:35:36.460Z,23.36
2023-02-16T11:38:02.833Z,23.43
2023-02-16T11:40:29.184Z,23.49
2023-02-16T11:42:55.594Z,23.79
2023-02-16T11:45:21.978Z,23.53
2023-02-16T11:47:48.350Z,23.39
2023-02-16T11:50:14.782Z,23.42
2023-02-16T11:52:41.124Z,23.68
2023-02-16T11:55:07.471Z,23.70
2023-02-16T11:57:33.900Z,23.62
2023-02-16T12:00:00.262Z,23.58
2023-02-16T12:02:26.623Z,23.45
2023-02-16T12:04:53.057Z,23.50
2023-02-16T12:07:19.457Z,23.78
2023-02-16T12:09:45.834Z,23.84
2023-02-16T12:12:12.254Z,23.85
2023-02-16T12:14:38.621Z,23.82
2023-02-16T12:17:05.016Z,23.48
2023-02-16T12:19:31.413Z,23.50
2023-02-16T12:21:57.788Z,23.54
2023-02-16T12:24:24.165Z,23.56
2023-02-16T12:26:50.574Z,23.51
2023-02-16T12:29:16.957Z,23.49
2023-02-16T12:31:43.378Z,23.50
2023-02-16T12:34:09.816Z,23.60
2023-02-16T12:36:36.198Z,23.39
2023-02-16T12:39:02.576Z,23.26
2023-02-16T12:41:29.007Z,23.23
2023-02-16T12:43:55.383Z,23.24
2023-02-16T12:46:23.829Z,23.34
2023-02-16T12:48:50.447Z,23.43
2023-02-16T12:51:16.821Z,23.49
2023-02-16T12:53:43.204Z,23.47
2023-02-16T12:56:09.590Z,23.48
2023-02-16T12:58:35.959Z,23.42
2023-02-16T13:01:02.486Z,23.58
2023-02-16T13:03:29.096Z,23.67
2023-02-16T13:05:55.491Z,23.69
2023-02-16T13:08:21.854Z,23.66
2023-02-16T13:10:48.310Z,23.59
2023-02-16T13:13:14.724Z,23.58
2023-02-16T13:15:41.106Z,23.69
2023-02-16T13:18:07.537Z,23.75
2023-02-16T13:20:33.959Z,23.76
2023-02-16T13:23:00.315Z,23.72
2023-02-16T13:25:26.820Z,23.68
2023-02-16T13:27:53.193Z,23.69
2023-02-16T13:30:19.564Z,24.20
2023-02-16T13:32:46.038Z,24.40
2023-02-16T13:35:12.421Z,24.35
2023-02-16T13:37:38.783Z,24.38
2023-02-16T13:40:05.201Z,24.34
2023-02-16T13:42:31.538Z,24.22
2023-02-16T13:44:57.879Z,24.11
2023-02-16T13:47:24.274Z,23.85
2023-02-16T13:49:50.609Z,24.12
2023-02-16T13:52:16.954Z,24.07
2023-02-16T13:54:43.373Z,24.01
2023-02-16T13:57:09.716Z,23.91
2023-02-16T13:59:36.046Z,23.74
2023-02-16T14:02:02.533Z,23.77
2023-02-16T14:04:28.942Z,23.73
2023-02-16T14:06:55.350Z,23.69
2023-02-16T14:09:21.746Z,23.63
2023-02-16T14:11:48.129Z,23.55
2023-02-16T14:14:14.485Z,23.49
2023-02-16T14:16:40.904Z,22.96
2023-02-16T14:19:07.298Z,22.84
2023-02-16T14:21:33.716Z,23.14
2023-02-16T14:24:00.122Z,23.35
2023-02-16T14:26:26.502Z,23.27
2023-02-16T14:28:52.910Z,23.25
2023-02-16T14:31:19.499Z,22.63
2023-02-16T14:33:45.937Z,22.45
2023-02-16T14:36:12.306Z,22.32
2023-02-16T14:38:38.714Z,22.24
2023-02-16T14:41:05.064Z,22.14
2023-02-16T14:43:31.404Z,22.05
2023-02-16T14:45:57.917Z,21.97
2023-02-16T14:48:24.450Z,21.90
2023-02-16T14:50:50.842Z,21.81
2023-02-16T14:53:17.298Z,21.76
2023-02-16T14:55:43.747Z,21.71
2023-02-16T14:58:10.183Z,21.67
2023-02-16T15:00:36.616Z,21.62
2023-02-16T15:03:03.115Z,21.55
2023-02-16T15:05:29.521Z,21.48
2023-02-16T15:07:56.021Z,21.40
2023-02-16T15:10:22.424Z,21.41
2023-02-16T15:12:48.750Z,21.34
2023-02-16T15:15:15.131Z,21.64
2023-02-16T15:17:41.452Z,21.52
2023-02-16T15:20:07.800Z,21.46
2023-02-16T15:22:34.182Z,21.13
2023-02-16T15:25:00.539Z,21.01
2023-02-16T15:27:26.942Z,20.95
2023-02-16T15:29:53.409Z,20.87
2023-02-16T15:32:19.795Z,20.80
2023-02-16T15:34:46.155Z,20.69
2023-02-16T15:37:12.502Z,20.62
2023-02-16T15:39:51.861Z,20.56
2023-02-16T15:42:22.546Z,20.48
2023-02-16T15:44:48.850Z,20.41
2023-02-16T15:47:15.173Z,20.32
2023-02-16T15:49:41.554Z,20.25
2023-02-16T15:52:07.866Z,20.20
2023-02-16T15:54:34.181Z,20.12
2023-02-16T15:57:00.567Z,20.04
2023-02-16T15:59:26.892Z,19.96
2023-02-16T16:01:53.223Z,19.90
2023-02-16T16:04:19.587Z,19.83
2023-02-16T16:06:45.897Z,19.75
2023-02-16T16:09:12.217Z,19.68
2023-02-16T16:11:38.590Z,19.62
2023-02-16T16:14:04.898Z,19.52
2023-02-16T16:16:31.334Z,19.45
2023-02-16T16:18:57.687Z,19.38
2023-02-16T16:21:24.017Z,19.31
2023-02-16T16:23:50.337Z,19.84
2023-02-16T16:26:16.806Z,19.91
2023-02-16T16:28:43.158Z,19.90
2023-02-16T16:31:09.658Z,19.84
2023-02-16T16:33:37.895Z,19.23
2023-02-16T16:36:05.122Z,18.96
2023-02-16T16:38:31.610Z,19.43
2023-02-16T16:40:57.990Z,18.84
2023-02-16T16:43:24.456Z,18.72
2023-02-16T16:45:50.953Z,18.63
2023-02-16T16:48:17.482Z,18.56
2023-02-16T16:50:43.855Z,18.49
2023-02-16T16:53:10.242Z,18.43
2023-02-16T16:55:36.774Z,18.34
2023-02-16T16:58:03.140Z,18.28
2023-02-16T17:00:29.460Z,18.22
2023-02-16T17:02:55.830Z,18.17
2023-02-16T17:05:22.156Z,18.09
2023-02-16T17:07:48.466Z,18.04
2023-02-16T17:10:14.834Z,18.28
2023-02-16T17:12:41.171Z,17.95
2023-02-16T17:15:07.479Z,17.88
2023-02-16T17:17:33.846Z,17.80
2023-02-16T17:20:00.211Z,17.71
2023-02-16T17:22:26.548Z,17.66
2023-02-16T17:24:52.921Z,17.59
2023-02-16T17:27:19.379Z,17.52
2023-02-16T17:29:45.774Z,17.46
2023-02-16T17:32:12.257Z,17.23
2023-02-16T17:34:38.647Z,17.34
2023-02-16T17:37:04.985Z,17.26
2023-02-16T17:39:31.369Z,17.18
2023-02-16T17:41:57.705Z,17.13
2023-02-16T17:44:24.061Z,17.07
2023-02-16T17:46:50.437Z,17.01
2023-02-16T17:49:16.758Z,16.95
2023-02-16T17:51:43.095Z,16.88
2023-02-16T17:54:09.468Z,16.82
2023-02-16T17:56:35.825Z,16.73
2023-02-16T17:59:02.150Z,16.67
2023-02-16T18:01:28.555Z,16.63
2023-02-16T18:03:54.875Z,16.54
2023-02-16T18:06:21.192Z,16.48
2023-02-16T18:08:47.541Z,16.39
2023-02-16T18:11:13.862Z,16.33
2023-02-16T18:13:40.184Z,16.24
2023-02-16T18:16:07.006Z,16.18
2023-02-16T18:18:33.720Z,16.11
2023-02-16T18:21:00.042Z,16.06
2023-02-16T18:23:26.428Z,16.00
2023-02-16T18:25:52.815Z,15.95
2023-02-16T18:28:19.122Z,15.86
2023-02-16T18:30:45.564Z,15.81
2023-02-16T18:33:12.012Z,15.73
2023-02-16T18:35:38.345Z,15.67
2023-02-16T18:38:04.736Z,15.63
2023-02-16T18:40:31.102Z,15.59
2023-02-16T18:42:57.432Z,15.51
2023-02-16T18:45:23.776Z,15.47
2023-02-16T18:47:50.101Z,15.44
2023-02-16T18:50:16.432Z,15.39
2023-02-16T18:52:42.801Z,15.35
2023-02-16T18:55:09.114Z,15.31
2023-02-16T18:57:35.452Z,15.27
2023-02-16T19:00:01.811Z,15.20
2023-02-16T19:02:28.170Z,15.14
2023-02-16T19:04:54.486Z,15.09
2023-02-16T19:07:20.896Z,15.03
2023-02-16T19:09:47.219Z,14.98
2023-02-16T19:12:13.535Z,14.95
2023-02-16T19:14:39.968Z,14.89
2023-02-16T19:17:06.278Z,14.85
2023-02-16T19:19:32.592Z,14.79
2023-02-16T19:21:59.176Z,14.75
2023-02-16T19:24:25.533Z,14.70
2023-02-16T19:26:51.887Z,14.63
2023-02-16T19:29:18.274Z,14.56
2023-02-16T19:31:44.665Z,14.52
2023-02-16T19:34:11.041Z,14.46
2023-02-16T19:36:37.401Z,14.41
2023-02-16T19:39:03.744Z,14.37
2023-02-16T19:41:30.057Z,14.32
2023-02-16T19:43:56.421Z,14.26
2023-02-16T19:46:22.753Z,14.22
2023-02-16T19:48:49.271Z,14.17
2023-02-16T19:51:15.697Z,14.10
2023-02-16T19:53:42.031Z,14.06
2023-02-16T19:56:08.443Z,14.00
2023-02-16T19:58:34.877Z,13.98
2023-02-16T20:01:01.232Z,13.94
2023-02-16T20:03:27.539Z,13.88
2023-02-16T20:05:53.898Z,13.86
2023-02-16T20:08:20.218Z,13.80
2023-02-16T20:10:46.535Z,13.77
2023-02-16T20:13:12.905Z,13.73
2023-02-16T20:15:39.333Z,13.68
2023-02-16T20:18:05.753Z,13.64
2023-02-16T20:20:32.127Z,13.57
2023-02-16T20:22:58.455Z,13.52
2023-02-16T20:25:24.803Z,13.47
2023-02-16T20:27:51.177Z,13.43
2023-02-16T20:30:17.520Z,13.39
2023-02-16T20:32:44.852Z,13.34
2023-02-16T20:35:12.561Z,13.29
2023-02-16T20:37:38.874Z,13.26
2023-02-16T20:40:05.200Z,13.23
2023-02-16T20:42:31.564Z,13.20
2023-02-16T20:44:57.932Z,13.18
2023-02-16T20:47:24.266Z,13.15
2023-02-16T20:49:50.612Z,13.15
2023-02-16T20:52:17.000Z,13.11
2023-02-16T20:54:43.301Z,13.08
2023-02-16T20:57:24.730Z,13.06
2023-02-16T20:59:52.368Z,13.02
2023-02-16T21:02:18.800Z,12.98
2023-02-16T21:04:45.163Z,12.94
2023-02-16T21:07:11.529Z,12.91
2023-02-16T21:09:37.892Z,12.87
2023-02-16T21:12:04.213Z,12.83
2023-02-16T21:14:30.581Z,12.80
2023-02-16T21:16:56.938Z,12.76
2023-02-16T21:19:23.701Z,12.71
2023-02-16T21:21:50.132Z,12.67
2023-02-16T21:24:16.523Z,12.65
2023-02-16T21:26:42.831Z,12.60
2023-02-16T21:29:09.229Z,12.58
2023-02-16T21:31:35.671Z,12.55
2023-02-16T21:34:02.029Z,12.49
2023-02-16T21:36:28.374Z,12.45
2023-02-16T21:38:54.765Z,12.42
2023-02-16T21:41:21.065Z,12.39
2023-02-16T21:43:47.422Z,12.33
2023-02-16T21:46:13.871Z,12.30
2023-02-16T21:48:40.199Z,12.26
2023-02-16T21:51:06.582Z,12.23
2023-02-16T21:53:32.941Z,12.20
2023-02-16T21:55:59.586Z,12.14
2023-02-16T21:58:26.034Z,12.12
2023-02-16T22:00:52.450Z,12.09
2023-02-16T22:03:18.775Z,12.03
2023-02-16T22:05:45.117Z,11.97
2023-02-16T22:08:14.185Z,11.94
2023-02-16T22:10:40.720Z,11.92
2023-02-16T22:13:07.044Z,11.89
2023-02-16T22:15:33.423Z,11.86
2023-02-16T22:17:59.740Z,11.83
2023-02-16T22:20:26.085Z,11.79
2023-02-16T22:22:52.441Z,11.75
2023-02-16T22:25:18.739Z,11.71
2023-02-16T22:27:45.047Z,11.68
2023-02-16T22:30:11.437Z,11.65
2023-02-16T22:32:37.815Z,11.62
2023-02-16T22:35:04.130Z,11.59
2023-02-16T22:37:30.507Z,11.56
2023-02-16T22:39:56.829Z,11.53
2023-02-16T22:42:23.155Z,11.49
2023-02-16T22:44:49.533Z,11.46
2023-02-16T22:47:15.856Z,11.42
2023-02-16T22:49:42.184Z,11.38
2023-02-16T22:52:08.546Z,11.36
2023-02-16T22:54:34.860Z,11.35
2023-02-16T22:57:01.213Z,11.35
2023-02-16T22:59:27.611Z,11.33
2023-02-16T23:01:53.958Z,11.33
2023-02-16T23:04:20.345Z,11.31
2023-02-16T23:06:46.712Z,11.30
2023-02-16T23:09:13.027Z,11.29
2023-02-16T23:11:39.365Z,11.27
2023-02-16T23:14:05.739Z,11.25
2023-02-16T23:16:32.134Z,11.23
2023-02-16T23:18:58.481Z,11.20
2023-02-16T23:21:24.850Z,11.19
2023-02-16T23:23:51.161Z,11.15
2023-02-16T23:26:17.490Z,11.13
2023-02-16T23:28:43.880Z,11.09
2023-02-16T23:31:10.268Z,11.07
2023-02-16T23:33:36.632Z,11.03
2023-02-16T23:36:03.259Z,11.00
2023-02-16T23:38:29.784Z,10.98
2023-02-16T23:40:56.194Z,10.93
2023-02-16T23:43:22.580Z,10.90
2023-02-16T23:45:49.015Z,10.87
2023-02-16T23:48:15.389Z,10.83
2023-02-16T23:50:41.817Z,10.81
2023-02-16T23:53:08.163Z,10.77
2023-02-16T23:55:34.505Z,10.74
2023-02-16T23:58:00.881Z,10.72
